Hanze Genua — PCZB — position and weather

sailwx.info

Track history (hours):
 
Tides and Currents Weather Stations Pressure Air Temp Water Temp Dewpoint Dewpoint Depression Visibility Wind Speed Wind Dir Waves Ship Positions

Hanze Genua

Last reported at 2017-Nov-11 14:09 UTC. Time now 2017-Nov-23 20:57 UTC.
Position N 24°05' W 017°28'.
Warning: this ship's position is 12 days out of date.

Length 180 m; draft 10.2 m.

Type: Cargo ship. MMSI: 244830401.

Date/timePositionNaut miles runAvg speedWind from/ knotsBaromVisibWave heightAir tempDewpointWater temp
2017-Nov-11 14:09N 24°05' W 017°28'10912.7
2017-Nov-11 05:33N 25°38' W 016°25'113.2
2017-Nov-11 05:30N 25°38' W 016°24'10913.0
2017-Nov-10 21:10N 26°55' W 014°58'212.6
2017-Nov-10 21:00N 26°57' W 014°57'912.7
2017-Nov-10 20:16N 27°04' W 014°50'3112.9
2017-Nov-10 17:50N 27°27' W 014°26'513.4
2017-Nov-10 17:29N 27°30' W 014°22'713.7
2017-Nov-10 17:00N 27°34' W 014°17'713.4
2017-Nov-10 16:30N 27°39' W 014°11'713.2
2017-Nov-10 16:00N 27°44' W 014°06'713.2
2017-Nov-10 15:30N 27°46' W 013°59'713.5
2017-Nov-10 15:00N 27°49' W 013°52'713.3
2017-Nov-10 14:31N 27°51' W 013°45'712.9
2017-Nov-10 14:00N 27°56' W 013°40'713.0
2017-Nov-10 13:26N 28°02' W 013°35'1912.9
2017-Nov-10 11:57N 28°19' W 013°27'1313.1
2017-Nov-10 10:59N 28°31' W 013°21'712.1
2017-Nov-10 10:26N 28°37' W 013°17'613.0
2017-Nov-10 10:00N 28°42' W 013°15'812.6
2017-Nov-10 09:22N 28°49' W 013°11'512.6
2017-Nov-10 09:00N 28°53' W 013°09'612.6
2017-Nov-10 08:30N 28°59' W 013°06'612.1
2017-Nov-10 08:00N 29°05' W 013°03'612.4
2017-Nov-10 07:30N 29°11' W 013°01'712.1
2017-Nov-10 06:57N 29°17' W 012°59'612.7
2017-Nov-10 06:30N 29°23' W 012°58'612.6
2017-Nov-10 06:00N 29°29' W 012°56'612.7
2017-Nov-10 05:30N 29°35' W 012°54'612.7
2017-Nov-10 05:00N 29°41' W 012°53'612.7
2017-Nov-10 04:30N 29°47' W 012°51'612.4
2017-Nov-10 04:00N 29°53' W 012°49'712.5
2017-Nov-10 03:28N 29°60' W 012°47'612.7
2017-Nov-10 03:00N 30°05' W 012°45'612.8
2017-Nov-10 02:30N 30°12' W 012°44'712.8
2017-Nov-10 01:58N 30°18' W 012°42'613.0
2017-Nov-10 01:29N 30°24' W 012°40'613.0
2017-Nov-10 00:59N 30°31' W 012°38'612.9
2017-Nov-10 00:30N 30°37' W 012°36'1912.5
2017-Nov-09 23:00N 30°55' W 012°31'7512.7
2017-Nov-09 17:04N 32°08' W 012°09'113.2
2017-Nov-09 17:00N 32°09' W 012°09'613.0
2017-Nov-09 16:31N 32°15' W 012°07'612.7
2017-Nov-09 16:00N 32°21' W 012°05'1413.0
2017-Nov-09 14:57N 32°34' W 012°01'613.3
2017-Nov-09 14:30N 32°40' W 011°59'713.3
2017-Nov-09 13:59N 32°47' W 011°57'613.0
2017-Nov-09 13:30N 32°53' W 011°55'34512.7
2017-Nov-08 10:21N 38°27' W 010°10'412.6
2017-Nov-08 10:00N 38°31' W 010°10'612.3
2017-Nov-08 09:30N 38°37' W 010°11'612.2
2017-Nov-08 09:00N 38°44' W 010°11'612.5
2017-Nov-08 08:31N 38°50' W 010°11'612.9
2017-Nov-08 08:01N 38°56' W 010°11'713.4
2017-Nov-08 07:30N 39°03' W 010°12'713.1
2017-Nov-08 07:00N 39°10' W 010°12'612.6
2017-Nov-08 06:30N 39°16' W 010°12'  
2017-Nov-05 22:25N 49°44' W 003°36'513.0
2017-Nov-05 22:00N 49°47' W 003°29'612.4
2017-Nov-05 21:30N 49°50' W 003°21'611.6
2017-Nov-05 20:58N 49°53' W 003°12'511.0
2017-Nov-05 20:30N 49°55' W 003°05'510.4
2017-Nov-05 20:00N 49°59' W 002°59'5 9.5
2017-Nov-05 19:30N 50°01' W 002°53'510.0
2017-Nov-05 18:59N 50°02' W 002°45'510.2
2017-Nov-05 18:30N 50°04' W 002°37'2011.7
2017-Nov-05 16:49N 50°09' W 002°08'413.8
2017-Nov-05 16:31N 50°10' W 002°01'714.7
2017-Nov-05 16:00N 50°12' W 001°50'815.5
2017-Nov-05 15:31N 50°14' W 001°39'815.8
2017-Nov-05 15:01N 50°16' W 001°27'816.0
2017-Nov-05 14:31N 50°18' W 001°15'3514.8
2017-Nov-05 12:10N 50°28' W 000°23'212.7
2017-Nov-05 12:01N 50°28' W 000°19'612.4
2017-Nov-05 11:31N 50°30' W 000°10'611.6
2017-Nov-05 11:00N 50°31' W 000°01'611.1
2017-Nov-05 10:30N 50°32' E 000°08'510.5
2017-Nov-05 10:00N 50°34' E 000°16'510.1
2017-Nov-05 09:31N 50°35' E 000°23'510.0
2017-Nov-05 09:01N 50°36' E 000°31'510.6
2017-Nov-05 08:30N 50°39' E 000°38'611.4
2017-Nov-05 08:01N 50°42' E 000°46'612.6
2017-Nov-05 07:31N 50°45' E 000°54'713.7
2017-Nov-05 07:01N 50°49' E 001°03'914.5
2017-Nov-05 06:22N 50°55' E 001°14'515.1
2017-Nov-05 06:00N 50°60' E 001°19'714.7
2017-Nov-05 05:31N 51°05' E 001°28'713.7
2017-Nov-05 05:01N 51°08' E 001°37'612.9
2017-Nov-05 04:31N 51°13' E 001°45'612.3
2017-Nov-05 04:01N 51°18' E 001°49'611.6
2017-Nov-05 03:31N 51°24' E 001°52'510.7
2017-Nov-05 03:01N 51°29' E 001°55'510.2
2017-Nov-05 02:31N 51°32' E 002°02'510.5
2017-Nov-05 02:00N 51°35' E 002°08'510.5
2017-Nov-05 01:30N 51°39' E 002°14'510.7
2017-Nov-05 01:00N 51°43' E 002°20'45111.7
2017-Nov-03 10:22N 57°47' E 010°01'511.4
2017-Nov-03 09:56N 57°48' E 010°10'511.4
2017-Nov-03 09:29N 57°48' E 010°19'611.5
2017-Nov-03 08:56N 57°49' E 010°31'511.1
2017-Nov-03 08:29N 57°49' E 010°40'612.1
2017-Nov-03 07:59N 57°46' E 010°50'612.3
2017-Nov-03 07:28N 57°41' E 010°59'612.7
2017-Nov-03 07:00N 57°37' E 011°07'612.4
2017-Nov-03 06:30N 57°33' E 011°15'612.5
2017-Nov-03 06:00N 57°29' E 011°24'612.1
2017-Nov-03 05:30N 57°24' E 011°29'612.1
2017-Nov-03 05:00N 57°18' E 011°32'612.0
2017-Nov-03 04:29N 57°12' E 011°36'612.1
2017-Nov-03 03:59N 57°06' E 011°40'612.2
2017-Nov-03 03:28N 57°00' E 011°44'612.0
2017-Nov-03 03:00N 56°55' E 011°47'612.0
2017-Nov-03 02:29N 56°49' E 011°51'611.7
2017-Nov-03 02:00N 56°44' E 011°52'613.1
2017-Nov-03 01:30N 56°38' E 011°46'712.8
2017-Nov-03 01:00N 56°33' E 011°40'7610.6
2017-Nov-02 17:48N 55°19' E 011°03'510.1
2017-Nov-02 17:19N 55°15' E 011°06'3 9.1
2017-Nov-02 17:00N 55°12' E 011°06'611.1
2017-Nov-02 16:30N 55°08' E 010°59'611.2
2017-Nov-02 16:00N 55°02' E 010°60'510.9
2017-Nov-02 15:30N 54°57' E 010°55'611.1
2017-Nov-02 15:00N 54°53' E 010°50'510.6
2017-Nov-02 14:30N 54°47' E 010°49'611.1
2017-Nov-02 14:00N 54°42' E 010°46'510.2
2017-Nov-02 13:30N 54°38' E 010°53'510.7
2017-Nov-02 13:00N 54°36' E 011°01'510.8
2017-Nov-02 12:30N 54°36' E 011°11'611.3
2017-Nov-02 12:00N 54°33' E 011°19'611.4
2017-Nov-02 11:30N 54°31' E 011°28'510.9
2017-Nov-02 11:00N 54°29' E 011°37'611.3
2017-Nov-02 10:30N 54°26' E 011°45'511.0
2017-Nov-02 10:00N 54°26' E 011°55'611.2
2017-Nov-02 09:27N 54°26' E 012°06'510.0
2017-Nov-02 08:59N 54°29' E 012°12'611.7
2017-Nov-02 08:30N 54°34' E 012°15'7110.6
2017-Nov-02 01:51N 55°05' E 014°05'511.3
2017-Nov-02 01:24N 55°09' E 014°11'511.5
2017-Nov-02 01:00N 55°12' E 014°16'611.7
2017-Nov-02 00:30N 55°16' E 014°23'612.1
2017-Nov-02 00:00N 55°21' E 014°30'611.9
2017-Nov-01 23:30N 55°26' E 014°37'611.7
2017-Nov-01 23:00N 55°28' E 014°46'612.1
2017-Nov-01 22:30N 55°31' E 014°55'612.5
2017-Nov-01 22:00N 55°34' E 015°05'612.5
2017-Nov-01 21:30N 55°37' E 015°15'612.4
2017-Nov-01 21:00N 55°39' E 015°25'612.2
2017-Nov-01 20:30N 55°41' E 015°36'612.3
2017-Nov-01 20:00N 55°42' E 015°46'612.2
2017-Nov-01 19:30N 55°44' E 015°57'612.3
2017-Nov-01 19:00N 55°45' E 016°07'612.3
2017-Nov-01 18:30N 55°46' E 016°18'  
Track history (hours):
 
Tides and Currents Weather Stations Pressure Air Temp Water Temp Dewpoint Dewpoint Depression Visibility Wind Speed Wind Dir Waves Ship Positions

Hanze Genua

Last reported at 2017-Nov-11 14:09 UTC. Time now 2017-Nov-23 20:57 UTC.
Position N 24°05' W 017°28'.
Warning: this ship's position is 12 days out of date.

Length 180 m; draft 10.2 m.

Type: Cargo ship. MMSI: 244830401.

Date/timePositionNaut miles runAvg speedWind from/ knotsBaromVisibWave heightAir tempDewpointWater temp
2017-Nov-11 14:09N 24°05' W 017°28'10912.7
2017-Nov-11 05:33N 25°38' W 016°25'113.2
2017-Nov-11 05:30N 25°38' W 016°24'10913.0
2017-Nov-10 21:10N 26°55' W 014°58'212.6
2017-Nov-10 21:00N 26°57' W 014°57'912.7
2017-Nov-10 20:16N 27°04' W 014°50'3112.9
2017-Nov-10 17:50N 27°27' W 014°26'513.4
2017-Nov-10 17:29N 27°30' W 014°22'713.7
2017-Nov-10 17:00N 27°34' W 014°17'713.4
2017-Nov-10 16:30N 27°39' W 014°11'713.2
2017-Nov-10 16:00N 27°44' W 014°06'713.2
2017-Nov-10 15:30N 27°46' W 013°59'713.5
2017-Nov-10 15:00N 27°49' W 013°52'713.3
2017-Nov-10 14:31N 27°51' W 013°45'712.9
2017-Nov-10 14:00N 27°56' W 013°40'713.0
2017-Nov-10 13:26N 28°02' W 013°35'1912.9
2017-Nov-10 11:57N 28°19' W 013°27'1313.1
2017-Nov-10 10:59N 28°31' W 013°21'712.1
2017-Nov-10 10:26N 28°37' W 013°17'613.0
2017-Nov-10 10:00N 28°42' W 013°15'812.6
2017-Nov-10 09:22N 28°49' W 013°11'512.6
2017-Nov-10 09:00N 28°53' W 013°09'612.6
2017-Nov-10 08:30N 28°59' W 013°06'612.1
2017-Nov-10 08:00N 29°05' W 013°03'612.4
2017-Nov-10 07:30N 29°11' W 013°01'712.1
2017-Nov-10 06:57N 29°17' W 012°59'612.7
2017-Nov-10 06:30N 29°23' W 012°58'612.6
2017-Nov-10 06:00N 29°29' W 012°56'612.7
2017-Nov-10 05:30N 29°35' W 012°54'612.7
2017-Nov-10 05:00N 29°41' W 012°53'612.7
2017-Nov-10 04:30N 29°47' W 012°51'612.4
2017-Nov-10 04:00N 29°53' W 012°49'712.5
2017-Nov-10 03:28N 29°60' W 012°47'612.7
2017-Nov-10 03:00N 30°05' W 012°45'612.8
2017-Nov-10 02:30N 30°12' W 012°44'712.8
2017-Nov-10 01:58N 30°18' W 012°42'613.0
2017-Nov-10 01:29N 30°24' W 012°40'613.0
2017-Nov-10 00:59N 30°31' W 012°38'612.9
2017-Nov-10 00:30N 30°37' W 012°36'1912.5
2017-Nov-09 23:00N 30°55' W 012°31'7512.7
2017-Nov-09 17:04N 32°08' W 012°09'113.2
2017-Nov-09 17:00N 32°09' W 012°09'613.0
2017-Nov-09 16:31N 32°15' W 012°07'612.7
2017-Nov-09 16:00N 32°21' W 012°05'1413.0
2017-Nov-09 14:57N 32°34' W 012°01'613.3
2017-Nov-09 14:30N 32°40' W 011°59'713.3
2017-Nov-09 13:59N 32°47' W 011°57'613.0
2017-Nov-09 13:30N 32°53' W 011°55'34512.7
2017-Nov-08 10:21N 38°27' W 010°10'412.6
2017-Nov-08 10:00N 38°31' W 010°10'612.3
2017-Nov-08 09:30N 38°37' W 010°11'612.2
2017-Nov-08 09:00N 38°44' W 010°11'612.5
2017-Nov-08 08:31N 38°50' W 010°11'612.9
2017-Nov-08 08:01N 38°56' W 010°11'713.4
2017-Nov-08 07:30N 39°03' W 010°12'713.1
2017-Nov-08 07:00N 39°10' W 010°12'612.6
2017-Nov-08 06:30N 39°16' W 010°12'  
2017-Nov-05 22:25N 49°44' W 003°36'513.0
2017-Nov-05 22:00N 49°47' W 003°29'612.4
2017-Nov-05 21:30N 49°50' W 003°21'611.6
2017-Nov-05 20:58N 49°53' W 003°12'511.0
2017-Nov-05 20:30N 49°55' W 003°05'510.4
2017-Nov-05 20:00N 49°59' W 002°59'5 9.5
2017-Nov-05 19:30N 50°01' W 002°53'510.0
2017-Nov-05 18:59N 50°02' W 002°45'510.2
2017-Nov-05 18:30N 50°04' W 002°37'2011.7
2017-Nov-05 16:49N 50°09' W 002°08'413.8
2017-Nov-05 16:31N 50°10' W 002°01'714.7
2017-Nov-05 16:00N 50°12' W 001°50'815.5
2017-Nov-05 15:31N 50°14' W 001°39'815.8
2017-Nov-05 15:01N 50°16' W 001°27'816.0
2017-Nov-05 14:31N 50°18' W 001°15'3514.8
2017-Nov-05 12:10N 50°28' W 000°23'212.7
2017-Nov-05 12:01N 50°28' W 000°19'612.4
2017-Nov-05 11:31N 50°30' W 000°10'611.6
2017-Nov-05 11:00N 50°31' W 000°01'611.1
2017-Nov-05 10:30N 50°32' E 000°08'510.5
2017-Nov-05 10:00N 50°34' E 000°16'510.1
2017-Nov-05 09:31N 50°35' E 000°23'510.0
2017-Nov-05 09:01N 50°36' E 000°31'510.6
2017-Nov-05 08:30N 50°39' E 000°38'611.4
2017-Nov-05 08:01N 50°42' E 000°46'612.6
2017-Nov-05 07:31N 50°45' E 000°54'713.7
2017-Nov-05 07:01N 50°49' E 001°03'914.5
2017-Nov-05 06:22N 50°55' E 001°14'515.1
2017-Nov-05 06:00N 50°60' E 001°19'714.7
2017-Nov-05 05:31N 51°05' E 001°28'713.7
2017-Nov-05 05:01N 51°08' E 001°37'612.9
2017-Nov-05 04:31N 51°13' E 001°45'612.3
2017-Nov-05 04:01N 51°18' E 001°49'611.6
2017-Nov-05 03:31N 51°24' E 001°52'510.7
2017-Nov-05 03:01N 51°29' E 001°55'510.2
2017-Nov-05 02:31N 51°32' E 002°02'510.5
2017-Nov-05 02:00N 51°35' E 002°08'510.5
2017-Nov-05 01:30N 51°39' E 002°14'510.7
2017-Nov-05 01:00N 51°43' E 002°20'45111.7
2017-Nov-03 10:22N 57°47' E 010°01'511.4
2017-Nov-03 09:56N 57°48' E 010°10'511.4
2017-Nov-03 09:29N 57°48' E 010°19'611.5
2017-Nov-03 08:56N 57°49' E 010°31'511.1
2017-Nov-03 08:29N 57°49' E 010°40'612.1
2017-Nov-03 07:59N 57°46' E 010°50'612.3
2017-Nov-03 07:28N 57°41' E 010°59'612.7
2017-Nov-03 07:00N 57°37' E 011°07'612.4
2017-Nov-03 06:30N 57°33' E 011°15'612.5
2017-Nov-03 06:00N 57°29' E 011°24'612.1
2017-Nov-03 05:30N 57°24' E 011°29'612.1
2017-Nov-03 05:00N 57°18' E 011°32'612.0
2017-Nov-03 04:29N 57°12' E 011°36'612.1
2017-Nov-03 03:59N 57°06' E 011°40'612.2
2017-Nov-03 03:28N 57°00' E 011°44'612.0
2017-Nov-03 03:00N 56°55' E 011°47'612.0
2017-Nov-03 02:29N 56°49' E 011°51'611.7
2017-Nov-03 02:00N 56°44' E 011°52'613.1
2017-Nov-03 01:30N 56°38' E 011°46'712.8
2017-Nov-03 01:00N 56°33' E 011°40'7610.6
2017-Nov-02 17:48N 55°19' E 011°03'510.1
2017-Nov-02 17:19N 55°15' E 011°06'3 9.1
2017-Nov-02 17:00N 55°12' E 011°06'611.1
2017-Nov-02 16:30N 55°08' E 010°59'611.2
2017-Nov-02 16:00N 55°02' E 010°60'510.9
2017-Nov-02 15:30N 54°57' E 010°55'611.1
2017-Nov-02 15:00N 54°53' E 010°50'510.6
2017-Nov-02 14:30N 54°47' E 010°49'611.1
2017-Nov-02 14:00N 54°42' E 010°46'510.2
2017-Nov-02 13:30N 54°38' E 010°53'510.7
2017-Nov-02 13:00N 54°36' E 011°01'510.8
2017-Nov-02 12:30N 54°36' E 011°11'611.3
2017-Nov-02 12:00N 54°33' E 011°19'611.4
2017-Nov-02 11:30N 54°31' E 011°28'510.9
2017-Nov-02 11:00N 54°29' E 011°37'611.3
2017-Nov-02 10:30N 54°26' E 011°45'511.0
2017-Nov-02 10:00N 54°26' E 011°55'611.2
2017-Nov-02 09:27N 54°26' E 012°06'510.0
2017-Nov-02 08:59N 54°29' E 012°12'611.7
2017-Nov-02 08:30N 54°34' E 012°15'7110.6
2017-Nov-02 01:51N 55°05' E 014°05'511.3
2017-Nov-02 01:24N 55°09' E 014°11'511.5
2017-Nov-02 01:00N 55°12' E 014°16'611.7
2017-Nov-02 00:30N 55°16' E 014°23'612.1
2017-Nov-02 00:00N 55°21' E 014°30'611.9
2017-Nov-01 23:30N 55°26' E 014°37'611.7
2017-Nov-01 23:00N 55°28' E 014°46'612.1
2017-Nov-01 22:30N 55°31' E 014°55'612.5
2017-Nov-01 22:00N 55°34' E 015°05'612.5
2017-Nov-01 21:30N 55°37' E 015°15'612.4
2017-Nov-01 21:00N 55°39' E 015°25'612.2
2017-Nov-01 20:30N 55°41' E 015°36'612.3
2017-Nov-01 20:00N 55°42' E 015°46'612.2
2017-Nov-01 19:30N 55°44' E 015°57'612.3
2017-Nov-01 19:00N 55°45' E 016°07'612.3
2017-Nov-01 18:30N 55°46' E 016°18'  

Dump ship's entire track history